Time;durP1;ratioP1;P1;durP2;ratioP2;P2;SDS_P1;SDS_P2;PMS_P1;PMS_P2;Temp;Humidity;BMP_temperature;BMP_pressure;BME280_temperature;BME280_humidity;BME280_pressure;Samples;Min_cycle;Max_cycle;Signal;HPM_P1;HPM_P2
2021/03/10 00:01:54;;;;;;;24.95;16.52;;;6.40;58.50;;;;;;5050804;28;20231;-83
2021/03/10 00:04:21;;;;;;;27.77;16.88;;;6.40;58.20;;;;;;5051738;28;20211;-83
2021/03/10 00:06:48;;;;;;;23.05;15.35;;;6.40;58.80;;;;;;5050852;28;20207;-82
2021/03/10 00:09:15;;;;;;;28.15;16.88;;;6.40;58.20;;;;;;5051448;28;20211;-82
2021/03/10 00:11:42;;;;;;;24.25;15.60;;;6.40;57.70;;;;;;5052010;28;20238;-83
2021/03/10 00:14:09;;;;;;;29.00;16.17;;;6.40;58.30;;;;;;5053428;28;20211;-81
2021/03/10 00:16:36;;;;;;;24.70;16.48;;;6.30;58.60;;;;;;5051752;28;20226;-82
2021/03/10 00:19:03;;;;;;;24.52;15.35;;;6.40;58.90;;;;;;5054291;28;20231;-85
2021/03/10 00:21:29;;;;;;;24.50;16.05;;;6.40;58.40;;;;;;5052905;28;20219;-82
2021/03/10 00:23:56;;;;;;;25.55;16.58;;;6.40;58.00;;;;;;5055289;28;20195;-82
2021/03/10 00:26:22;;;;;;;23.15;14.77;;;6.40;57.80;;;;;;5055022;28;20188;-81
2021/03/10 00:28:49;;;;;;;26.85;16.60;;;6.40;58.00;;;;;;5054718;28;20203;-81
2021/03/10 00:31:16;;;;;;;27.85;16.15;;;6.40;57.10;;;;;;5055757;28;20191;-81
2021/03/10 00:33:43;;;;;;;27.15;17.00;;;6.40;57.40;;;;;;5055062;28;20198;-81
2021/03/10 00:36:10;;;;;;;26.88;16.33;;;6.30;57.70;;;;;;5050171;28;20212;-81
2021/03/10 00:38:36;;;;;;;27.20;17.48;;;6.30;57.60;;;;;;5048016;28;20245;-83
2021/03/10 00:41:03;;;;;;;24.80;15.02;;;6.40;57.20;;;;;;5047576;28;20215;-83
2021/03/10 00:43:29;;;;;;;26.48;16.95;;;6.40;57.40;;;;;;5047363;28;20207;-83
2021/03/10 00:45:56;;;;;;;30.38;16.48;;;6.40;57.20;;;;;;5046934;28;20530;-83
2021/03/10 00:48:24;;;;;;;33.10;18.10;;;6.40;57.50;;;;;;5051315;28;20213;-83
2021/03/10 00:50:50;;;;;;;27.05;16.52;;;6.40;57.30;;;;;;5051487;28;20651;-83
2021/03/10 00:53:16;;;;;;;28.17;16.20;;;6.40;57.10;;;;;;5050520;28;20434;-81
2021/03/10 00:55:43;;;;;;;26.75;16.80;;;6.40;57.30;;;;;;5050828;28;20202;-81
2021/03/10 00:58:15;;;;;;;33.13;17.45;;;6.40;57.40;;;;;;5048850;28;20722;-81
2021/03/10 01:00:42;;;;;;;25.80;16.05;;;6.40;57.80;;;;;;5045857;28;20265;-82
2021/03/10 01:03:08;;;;;;;29.83;17.52;;;6.40;58.20;;;;;;5048888;28;20231;-82
2021/03/10 01:05:35;;;;;;;27.30;17.02;;;6.30;58.20;;;;;;5049295;28;20218;-83
2021/03/10 01:08:02;;;;;;;25.95;16.85;;;6.30;58.10;;;;;;5048487;28;20207;-81
2021/03/10 01:10:28;;;;;;;26.30;16.45;;;6.30;58.10;;;;;;5048639;28;20234;-82
2021/03/10 01:12:55;;;;;;;28.13;16.80;;;6.30;58.50;;;;;;5048499;28;20230;-81
2021/03/10 01:15:21;;;;;;;28.00;16.10;;;6.30;58.40;;;;;;5046843;28;20207;-81
2021/03/10 01:17:48;;;;;;;31.30;18.30;;;6.30;57.90;;;;;;5047787;28;20301;-82
2021/03/10 01:20:16;;;;;;;30.33;18.48;;;6.30;58.10;;;;;;5049709;28;20203;-83
2021/03/10 01:22:44;;;;;;;27.98;17.02;;;6.30;58.10;;;;;;5050131;28;20238;-82
2021/03/10 01:25:12;;;;;;;28.38;16.40;;;6.30;58.10;;;;;;5051378;28;20211;-83
2021/03/10 01:27:39;;;;;;;35.28;19.98;;;6.30;58.60;;;;;;5044545;28;20211;-84
2021/03/10 01:30:08;;;;;;;27.58;17.30;;;6.20;58.60;;;;;;5045238;28;20207;-82
2021/03/10 01:32:34;;;;;;;27.88;17.80;;;6.30;58.90;;;;;;5051582;28;20222;-82
2021/03/10 01:35:01;;;;;;;29.55;17.65;;;6.30;58.60;;;;;;5058362;28;20199;-80
2021/03/10 01:37:27;;;;;;;36.85;18.92;;;6.30;59.00;;;;;;5058925;28;20191;-81
2021/03/10 01:39:55;;;;;;;29.02;18.20;;;6.30;58.90;;;;;;5056223;28;20221;-82
2021/03/10 01:42:22;;;;;;;29.88;16.80;;;6.20;58.80;;;;;;5058608;28;20223;-82
2021/03/10 01:44:49;;;;;;;28.80;18.08;;;6.30;59.00;;;;;;5058674;28;20196;-82
2021/03/10 01:47:15;;;;;;;35.28;19.95;;;6.30;58.70;;;;;;5053804;28;20206;-81
2021/03/10 01:49:42;;;;;;;32.35;19.52;;;6.20;59.20;;;;;;5056872;28;20203;-81
2021/03/10 01:52:10;;;;;;;27.70;17.67;;;6.20;58.40;;;;;;5057894;28;20231;-81
2021/03/10 01:54:37;;;;;;;31.65;18.90;;;6.20;58.70;;;;;;5058434;28;20191;-82
2021/03/10 01:57:04;;;;;;;32.00;19.42;;;6.20;59.00;;;;;;5055858;28;20207;-82
2021/03/10 01:59:31;;;;;;;29.10;17.70;;;6.20;59.20;;;;;;5051365;28;20310;-84
2021/03/10 02:01:57;;;;;;;34.30;20.20;;;6.10;59.50;;;;;;5051235;28;20227;-82
2021/03/10 02:04:24;;;;;;;29.23;18.20;;;6.10;59.70;;;;;;5052051;28;20215;-82
2021/03/10 02:06:59;;;;;;;32.63;20.52;;;6.10;60.00;;;;;;5051049;28;20207;-82
2021/03/10 02:09:34;;;;;;;30.75;18.98;;;6.20;59.80;;;;;;5052366;28;20217;-82
2021/03/10 02:12:08;;;;;;;33.95;19.15;;;6.20;59.70;;;;;;5052627;28;20214;-82
2021/03/10 02:14:42;;;;;;;30.00;18.85;;;6.10;60.00;;;;;;5052915;28;20202;-80
2021/03/10 02:17:12;;;;;;;34.28;19.50;;;6.10;59.80;;;;;;5051888;28;20277;-81
2021/03/10 02:20:05;;;;;;;31.55;19.02;;;6.10;60.10;;;;;;5053486;28;20222;-86
2021/03/10 02:23:16;;;;;;;29.90;17.55;;;6.00;60.30;;;;;;5049228;28;20223;-83
2021/03/10 02:25:55;;;;;;;27.73;17.10;;;6.00;60.70;;;;;;4987043;28;20215;-83
2021/03/10 02:28:22;;;;;;;38.85;19.80;;;5.90;60.60;;;;;;5043634;28;20203;-83
2021/03/10 02:30:51;;;;;;;36.53;19.02;;;5.80;61.00;;;;;;5055927;28;20191;-82
2021/03/10 02:33:20;;;;;;;30.70;19.45;;;5.80;61.50;;;;;;5054618;28;20229;-82
2021/03/10 02:35:51;;;;;;;33.22;17.67;;;5.80;61.90;;;;;;5056417;28;20195;-82
2021/03/10 02:38:21;;;;;;;28.67;17.88;;;5.80;61.90;;;;;;5056305;28;20212;-83
2021/03/10 02:40:48;;;;;;;31.85;18.30;;;5.90;62.00;;;;;;5055778;28;20188;-82
2021/03/10 02:43:16;;;;;;;34.03;19.45;;;5.90;62.20;;;;;;5055858;28;20387;-81
2021/03/10 02:45:43;;;;;;;30.75;19.10;;;6.00;61.80;;;;;;5056845;28;20225;-81
2021/03/10 02:48:11;;;;;;;33.35;18.90;;;6.00;61.30;;;;;;5056481;28;20234;-83
2021/03/10 02:50:39;;;;;;;34.08;19.30;;;6.00;61.40;;;;;;5055665;28;20327;-82
2021/03/10 02:53:08;;;;;;;31.08;18.60;;;5.90;61.30;;;;;;5051471;28;20235;-83
2021/03/10 02:55:34;;;;;;;32.30;18.50;;;5.90;61.90;;;;;;5048844;28;20207;-82
2021/03/10 02:58:01;;;;;;;33.95;18.23;;;5.90;62.30;;;;;;5046676;28;20243;-82
2021/03/10 03:00:29;;;;;;;31.40;18.65;;;5.90;61.30;;;;;;5049888;28;20203;-81
2021/03/10 03:02:57;;;;;;;30.25;19.52;;;5.80;61.60;;;;;;5050113;28;20219;-81
2021/03/10 03:05:24;;;;;;;30.83;18.10;;;5.80;61.90;;;;;;5050005;28;20210;-81
2021/03/10 03:07:50;;;;;;;32.10;18.38;;;5.80;62.10;;;;;;5054025;28;20560;-83
2021/03/10 03:10:19;;;;;;;28.17;17.98;;;5.80;62.20;;;;;;5053475;28;20218;-82
2021/03/10 03:12:46;;;;;;;29.70;17.95;;;5.80;62.50;;;;;;5052971;28;20255;-83
2021/03/10 03:15:15;;;;;;;30.23;18.60;;;5.90;62.30;;;;;;5052320;28;20241;-82
2021/03/10 03:17:43;;;;;;;29.65;17.92;;;5.80;62.40;;;;;;5054237;28;20226;-81
2021/03/10 03:20:13;;;;;;;33.00;19.23;;;5.80;62.50;;;;;;5055077;28;20218;-82
2021/03/10 03:22:44;;;;;;;26.95;18.33;;;5.80;62.50;;;;;;5054117;28;20215;-84
2021/03/10 03:25:14;;;;;;;31.25;18.67;;;5.80;62.50;;;;;;5054394;28;20184;-83
2021/03/10 03:27:42;;;;;;;35.90;18.65;;;5.90;62.60;;;;;;5057143;28;20222;-81
2021/03/10 03:30:11;;;;;;;29.88;18.50;;;5.80;62.80;;;;;;5057430;28;20191;-81
2021/03/10 03:32:39;;;;;;;34.28;19.02;;;5.80;62.90;;;;;;5057517;28;20211;-81
2021/03/10 03:35:07;;;;;;;31.33;18.75;;;5.80;63.80;;;;;;5057753;28;20207;-81
2021/03/10 03:37:35;;;;;;;28.05;17.77;;;5.80;63.70;;;;;;5050199;28;20183;-81
2021/03/10 03:40:02;;;;;;;28.48;18.80;;;5.90;63.60;;;;;;5050999;28;20207;-81
2021/03/10 03:42:30;;;;;;;34.55;18.30;;;5.80;63.50;;;;;;5050940;28;20218;-81
2021/03/10 03:44:59;;;;;;;26.67;17.52;;;5.80;64.00;;;;;;5052949;28;20202;-81
2021/03/10 03:47:26;;;;;;;32.92;18.48;;;5.90;64.00;;;;;;5055441;28;20203;-80
2021/03/10 03:49:53;;;;;;;25.05;16.92;;;5.90;63.70;;;;;;5056204;28;20203;-81
2021/03/10 03:52:19;;;;;;;27.60;18.35;;;5.90;63.20;;;;;;5086183;23;20227;-78
2021/03/10 03:54:47;;;;;;;28.42;18.98;;;5.90;63.20;;;;;;5049469;28;20211;-77
2021/03/10 03:57:13;;;;;;;28.98;18.38;;;5.90;63.20;;;;;;5050050;28;20233;-78
2021/03/10 03:59:40;;;;;;;28.50;17.42;;;5.90;63.40;;;;;;5047575;28;20250;-79
2021/03/10 04:02:07;;;;;;;33.58;19.15;;;5.90;63.10;;;;;;5047625;28;20245;-78
2021/03/10 04:04:33;;;;;;;30.90;18.75;;;5.90;63.30;;;;;;5049025;28;20226;-78
2021/03/10 04:07:00;;;;;;;27.05;18.33;;;5.80;63.50;;;;;;5047545;28;20204;-79
2021/03/10 04:09:27;;;;;;;31.08;19.42;;;5.90;63.60;;;;;;5047249;28;20207;-78
2021/03/10 04:11:54;;;;;;;29.35;18.75;;;5.80;63.10;;;;;;5045231;28;20223;-77
2021/03/10 04:14:21;;;;;;;32.33;19.30;;;5.80;63.20;;;;;;5037807;28;20207;-77
2021/03/10 04:16:48;;;;;;;33.22;18.83;;;5.90;63.50;;;;;;5036755;28;20234;-77
2021/03/10 04:19:14;;;;;;;28.13;18.63;;;5.80;63.50;;;;;;5035555;28;20273;-78
2021/03/10 04:21:40;;;;;;;33.78;18.92;;;5.80;63.70;;;;;;5035003;28;20207;-77
2021/03/10 04:24:08;;;;;;;35.33;20.20;;;5.80;63.90;;;;;;5035403;28;20211;-77
2021/03/10 04:26:35;;;;;;;28.65;18.25;;;5.70;64.40;;;;;;5035491;28;20247;-78
2021/03/10 04:29:02;;;;;;;33.35;19.80;;;5.80;65.00;;;;;;5036577;28;20207;-78
2021/03/10 04:31:29;;;;;;;36.47;21.15;;;5.70;64.90;;;;;;5042102;28;20207;-78
2021/03/10 04:33:58;;;;;;;31.60;20.08;;;5.80;65.00;;;;;;5050767;28;20222;-77
2021/03/10 04:36:24;;;;;;;37.72;21.10;;;5.80;65.00;;;;;;5049982;28;20218;-78
2021/03/10 04:38:50;;;;;;;38.17;22.33;;;5.70;64.90;;;;;;5031853;28;20250;-78
2021/03/10 04:41:17;;;;;;;40.05;21.08;;;5.80;65.00;;;;;;5029079;28;20195;-78
2021/03/10 04:43:43;;;;;;;43.13;22.23;;;5.70;64.90;;;;;;5016424;28;20251;-78
2021/03/10 04:46:11;;;;;;;36.83;20.63;;;5.70;64.90;;;;;;5016717;28;20204;-78
2021/03/10 04:48:37;;;;;;;34.88;20.63;;;5.70;64.90;;;;;;5016839;28;20215;-76
2021/03/10 04:51:04;;;;;;;37.88;20.83;;;5.70;65.00;;;;;;5030308;28;20264;-77
2021/03/10 04:53:30;;;;;;;39.95;20.38;;;5.70;64.90;;;;;;5030596;28;20238;-77
2021/03/10 04:55:58;;;;;;;36.65;20.70;;;5.80;65.00;;;;;;5031513;28;20238;-77
2021/03/10 04:58:24;;;;;;;37.60;20.38;;;5.80;65.00;;;;;;5033019;28;20452;-77
2021/03/10 05:00:51;;;;;;;32.08;18.80;;;5.80;65.00;;;;;;5045309;28;20241;-78
2021/03/10 05:03:18;;;;;;;31.15;20.42;;;5.70;65.00;;;;;;5047842;28;20223;-76
2021/03/10 05:05:44;;;;;;;31.80;18.85;;;5.70;64.90;;;;;;5036705;28;20678;-77
2021/03/10 05:08:11;;;;;;;33.35;19.17;;;5.70;64.90;;;;;;5038533;28;20670;-78
2021/03/10 05:10:38;;;;;;;36.80;20.75;;;5.70;65.60;;;;;;5038573;28;20222;-77
2021/03/10 05:13:07;;;;;;;32.85;20.30;;;5.70;65.20;;;;;;5037606;28;20312;-77
2021/03/10 05:15:33;;;;;;;32.20;19.45;;;5.70;65.20;;;;;;5038104;28;20305;-76
2021/03/10 05:17:59;;;;;;;29.08;18.85;;;5.60;65.80;;;;;;5039032;28;20277;-78
2021/03/10 05:20:27;;;;;;;35.08;19.77;;;5.60;65.90;;;;;;5034934;28;20216;-78
2021/03/10 05:22:54;;;;;;;34.30;19.13;;;5.60;66.30;;;;;;5018632;28;20331;-76
2021/03/10 05:25:20;;;;;;;40.28;20.85;;;5.70;67.00;;;;;;5018924;28;20208;-77
2021/03/10 05:27:46;;;;;;;35.78;22.60;;;5.60;65.70;;;;;;5028542;28;20215;-78
2021/03/10 05:30:15;;;;;;;36.58;21.50;;;5.60;66.40;;;;;;5035360;28;20202;-76
2021/03/10 05:32:41;;;;;;;42.85;21.45;;;5.60;66.60;;;;;;5051892;28;20223;-76
2021/03/10 05:35:09;;;;;;;34.75;21.55;;;5.60;66.80;;;;;;5051245;28;20199;-78
2021/03/10 05:37:37;;;;;;;47.00;23.48;;;5.60;67.30;;;;;;5050999;28;20203;-76
2021/03/10 05:40:04;;;;;;;37.28;21.90;;;5.50;67.40;;;;;;5040806;28;20286;-76
2021/03/10 05:42:31;;;;;;;44.67;24.20;;;5.60;67.20;;;;;;5047007;28;20299;-77
2021/03/10 05:44:57;;;;;;;38.70;22.58;;;5.60;67.00;;;;;;5054284;28;20215;-78
2021/03/10 05:47:24;;;;;;;39.90;23.40;;;5.60;66.80;;;;;;5053110;28;20662;-78
2021/03/10 05:49:50;;;;;;;39.50;22.42;;;5.70;67.20;;;;;;5051178;28;20214;-78
2021/03/10 05:52:18;;;;;;;42.80;23.75;;;5.60;67.10;;;;;;5049803;28;20609;-77
2021/03/10 05:54:45;;;;;;;40.03;23.13;;;5.70;67.00;;;;;;5041795;28;20617;-77
2021/03/10 05:57:12;;;;;;;44.17;23.77;;;5.60;66.40;;;;;;5037123;28;20301;-77
2021/03/10 05:59:38;;;;;;;34.45;22.10;;;5.70;66.20;;;;;;5037104;28;20314;-77
2021/03/10 06:02:05;;;;;;;37.28;21.90;;;5.60;66.30;;;;;;5036457;28;20553;-76
2021/03/10 06:04:38;;;;;;;41.72;23.48;;;5.60;66.60;;;;;;5037362;28;20300;-78
2021/03/10 06:07:05;;;;;;;44.67;22.33;;;5.60;66.90;;;;;;5042430;28;20219;-77
2021/03/10 06:09:32;;;;;;;39.15;23.17;;;5.60;66.70;;;;;;5043113;28;20208;-77
2021/03/10 06:12:00;;;;;;;38.33;22.98;;;5.70;66.60;;;;;;5051874;28;20249;-77
2021/03/10 06:14:27;;;;;;;35.78;21.08;;;5.70;66.20;;;;;;5055073;28;20215;-77
2021/03/10 06:17:04;;;;;;;37.00;22.80;;;5.70;65.70;;;;;;5055738;28;20218;-77
2021/03/10 06:19:30;;;;;;;37.67;23.42;;;5.70;65.20;;;;;;5055290;28;20230;-78
2021/03/10 06:21:56;;;;;;;42.03;22.90;;;5.70;65.40;;;;;;5053098;28;20242;-78
2021/03/10 06:24:32;;;;;;;36.15;23.13;;;5.80;65.70;;;;;;5053060;28;20250;-78
2021/03/10 06:26:59;;;;;;;39.10;21.73;;;5.80;65.70;;;;;;5051740;28;20332;-78
2021/03/10 06:29:26;;;;;;;35.85;22.20;;;5.80;65.00;;;;;;5047344;28;20234;-77
2021/03/10 06:32:02;;;;;;;35.72;22.38;;;5.80;65.00;;;;;;5049897;28;20287;-77
2021/03/10 06:34:29;;;;;;;40.70;22.42;;;5.90;65.00;;;;;;5050423;28;20203;-77
2021/03/10 06:36:55;;;;;;;41.83;23.50;;;5.90;65.00;;;;;;5048211;28;20207;-78
2021/03/10 06:39:27;;;;;;;38.05;22.80;;;6.00;65.10;;;;;;5048211;28;20227;-79
2021/03/10 06:41:54;;;;;;;45.05;22.83;;;6.00;64.30;;;;;;5046953;28;20227;-77
2021/03/10 06:44:22;;;;;;;37.05;22.98;;;6.00;63.70;;;;;;5044500;28;20203;-76
2021/03/10 06:46:53;;;;;;;38.83;23.08;;;6.00;63.60;;;;;;5042983;28;20630;-78
2021/03/10 06:49:20;;;;;;;40.33;22.83;;;6.00;63.50;;;;;;5042816;28;20210;-78
2021/03/10 06:51:58;;;;;;;37.85;22.75;;;6.00;62.70;;;;;;5045828;28;20231;-77
2021/03/10 06:54:25;;;;;;;37.88;22.45;;;6.00;63.30;;;;;;5046492;28;20238;-77
2021/03/10 06:57:02;;;;;;;42.65;23.90;;;6.10;63.20;;;;;;5041133;28;20207;-76
2021/03/10 06:59:40;;;;;;;42.40;23.42;;;6.10;63.20;;;;;;5046525;28;20234;-78
2021/03/10 07:02:09;;;;;;;41.30;22.45;;;6.20;62.30;;;;;;5048952;28;20231;-78
2021/03/10 07:04:38;;;;;;;33.83;21.88;;;6.20;62.00;;;;;;5048949;28;20217;-79
2021/03/10 07:07:05;;;;;;;39.60;24.80;;;6.20;61.80;;;;;;5047945;28;20271;-77
2021/03/10 07:09:33;;;;;;;38.40;22.65;;;6.20;61.60;;;;;;5046352;28;20238;-78
2021/03/10 07:12:00;;;;;;;39.45;23.70;;;6.20;61.30;;;;;;5044318;28;20230;-77
2021/03/10 07:14:28;;;;;;;36.78;21.73;;;6.30;61.70;;;;;;5045151;28;20227;-78
2021/03/10 07:16:56;;;;;;;38.55;22.67;;;6.30;61.00;;;;;;5042691;28;20233;-78
2021/03/10 07:19:23;;;;;;;39.65;23.55;;;6.30;60.70;;;;;;5042970;28;20230;-77
2021/03/10 07:21:54;;;;;;;37.33;21.77;;;6.30;61.00;;;;;;5042026;28;20226;-78
2021/03/10 07:24:25;;;;;;;41.60;23.88;;;6.30;61.00;;;;;;5040562;28;20194;-79
2021/03/10 07:26:55;;;;;;;37.45;23.25;;;6.40;61.10;;;;;;5040256;28;20234;-77
2021/03/10 07:29:23;;;;;;;41.50;21.90;;;6.50;60.00;;;;;;5039167;28;20284;-79
2021/03/10 07:31:59;;;;;;;35.30;21.60;;;6.50;59.70;;;;;;5037378;28;20257;-78
2021/03/10 07:34:26;;;;;;;39.03;23.23;;;6.50;59.20;;;;;;5040246;28;20199;-79
2021/03/10 07:36:52;;;;;;;43.60;25.38;;;6.50;59.30;;;;;;5039926;28;20207;-78
2021/03/10 07:39:22;;;;;;;41.90;24.38;;;6.60;59.10;;;;;;5041055;28;20227;-78
2021/03/10 07:41:49;;;;;;;45.53;25.42;;;6.60;58.40;;;;;;5040648;28;20215;-78
2021/03/10 07:44:17;;;;;;;40.83;24.25;;;6.60;58.30;;;;;;5043810;28;20203;-79
2021/03/10 07:46:44;;;;;;;41.70;24.38;;;6.60;58.80;;;;;;5040763;28;20682;-79
2021/03/10 07:49:23;;;;;;;40.72;24.02;;;6.70;58.60;;;;;;5043243;28;20231;-77
2021/03/10 07:51:51;;;;;;;39.33;23.88;;;6.80;58.30;;;;;;5050184;28;20297;-78
2021/03/10 07:54:23;;;;;;;39.28;24.27;;;6.90;57.50;;;;;;5046769;28;20219;-78
2021/03/10 07:56:50;;;;;;;38.42;25.05;;;7.00;57.10;;;;;;5043723;28;20635;-79
2021/03/10 07:59:18;;;;;;;40.10;24.75;;;7.00;57.10;;;;;;5040178;28;20223;-78
2021/03/10 08:01:45;;;;;;;40.25;22.88;;;7.00;57.10;;;;;;5037562;28;20218;-77
2021/03/10 08:04:13;;;;;;;41.17;24.00;;;7.00;57.10;;;;;;5040158;28;20203;-78
2021/03/10 08:06:49;;;;;;;39.78;22.77;;;7.00;57.10;;;;;;5036847;28;20242;-78
2021/03/10 08:09:17;;;;;;;39.55;23.25;;;7.30;57.30;;;;;;5037948;28;20240;-78
2021/03/10 08:11:45;;;;;;;42.28;23.45;;;7.40;55.80;;;;;;5035791;28;20218;-77
2021/03/10 08:14:15;;;;;;;35.88;23.20;;;7.60;54.90;;;;;;5036410;28;20290;-79
2021/03/10 08:16:47;;;;;;;36.65;22.88;;;7.60;54.30;;;;;;5036490;28;20263;-78
2021/03/10 08:19:14;;;;;;;39.35;24.27;;;7.80;53.90;;;;;;5036007;28;20257;-76
2021/03/10 08:21:49;;;;;;;39.67;24.73;;;7.90;53.00;;;;;;5036204;28;20273;-78
2021/03/10 08:24:15;;;;;;;43.72;25.23;;;7.80;53.10;;;;;;5036734;28;20571;-77
2021/03/10 08:26:42;;;;;;;37.05;23.33;;;8.00;52.90;;;;;;5038965;28;20671;-77
2021/03/10 08:29:09;;;;;;;41.75;23.90;;;8.30;52.20;;;;;;5043298;28;20274;-79
2021/03/10 08:31:49;;;;;;;37.72;23.88;;;8.40;51.00;;;;;;5042312;28;20211;-77
2021/03/10 08:34:28;;;;;;;37.60;23.52;;;8.50;49.80;;;;;;5037218;28;20210;-78
2021/03/10 08:36:55;;;;;;;40.05;23.75;;;8.60;50.80;;;;;;5038308;28;20528;-80
2021/03/10 08:39:22;;;;;;;45.00;23.50;;;8.70;49.40;;;;;;5039612;28;20222;-78
2021/03/10 08:41:51;;;;;;;37.97;23.20;;;8.70;49.10;;;;;;5041374;28;20214;-78
2021/03/10 08:44:21;;;;;;;40.13;25.08;;;8.80;49.20;;;;;;5047280;28;20211;-79
2021/03/10 08:46:49;;;;;;;43.33;24.20;;;8.80;49.20;;;;;;5047551;28;20210;-81
2021/03/10 08:49:33;;;;;;;39.90;24.13;;;9.00;49.40;;;;;;5049976;28;20191;-79
2021/03/10 08:52:06;;;;;;;42.15;26.35;;;9.10;49.40;;;;;;5055745;28;20238;-78
2021/03/10 08:54:32;;;;;;;38.42;24.38;;;9.20;48.60;;;;;;5054361;28;20441;-79
2021/03/10 08:56:59;;;;;;;40.50;26.02;;;9.20;49.10;;;;;;5052076;28;20211;-77
2021/03/10 08:59:34;;;;;;;37.78;25.25;;;9.30;48.20;;;;;;5049388;28;20235;-78
2021/03/10 09:02:01;;;;;;;38.38;24.65;;;9.20;48.80;;;;;;5050834;28;20222;-77
2021/03/10 09:04:28;;;;;;;48.13;27.50;;;9.20;48.20;;;;;;5046397;28;20206;-77
2021/03/10 09:06:56;;;;;;;38.47;24.00;;;9.00;49.40;;;;;;5045632;28;20246;-80
2021/03/10 09:09:25;;;;;;;41.22;24.90;;;9.20;49.30;;;;;;5051538;28;20226;-80
2021/03/10 09:11:53;;;;;;;52.00;29.27;;;9.30;48.80;;;;;;5055885;28;20302;-78
2021/03/10 09:14:20;;;;;;;40.70;26.38;;;9.50;47.90;;;;;;5053454;28;20211;-79
2021/03/10 09:16:51;;;;;;;42.40;25.10;;;9.70;46.80;;;;;;5035193;28;20240;-80
2021/03/10 09:19:32;;;;;;;44.08;24.38;;;9.60;46.90;;;;;;5012247;28;20288;-78
2021/03/10 09:22:13;;;;;;;45.47;25.63;;;9.80;46.40;;;;;;5019224;28;20276;-80
2021/03/10 09:24:54;;;;;;;40.50;25.73;;;10.00;45.30;;;;;;5020770;28;20200;-79
2021/03/10 09:27:24;;;;;;;40.53;27.17;;;10.10;44.80;;;;;;5020675;28;20200;-78
2021/03/10 09:29:52;;;;;;;45.53;26.42;;;10.30;44.70;;;;;;5014451;28;20208;-78
2021/03/10 09:32:18;;;;;;;41.80;25.05;;;10.40;44.00;;;;;;5016286;28;20216;-78
2021/03/10 09:34:49;;;;;;;41.03;25.08;;;10.50;43.40;;;;;;5018285;28;20316;-79
2021/03/10 09:37:17;;;;;;;40.05;25.65;;;10.40;43.40;;;;;;5019270;28;20204;-80
2021/03/10 09:39:48;;;;;;;40.25;25.48;;;10.30;43.50;;;;;;5013147;28;20238;-78
2021/03/10 09:42:16;;;;;;;39.53;25.50;;;10.20;43.80;;;;;;5011295;28;20225;-79
2021/03/10 09:44:44;;;;;;;43.45;24.98;;;10.20;43.50;;;;;;5007057;28;20564;-80
2021/03/10 09:47:16;;;;;;;36.65;24.08;;;10.10;43.70;;;;;;5006214;28;20212;-78
2021/03/10 09:49:54;;;;;;;42.00;23.85;;;10.30;43.80;;;;;;5006392;28;20233;-78
2021/03/10 09:52:36;;;;;;;42.13;25.40;;;10.50;43.40;;;;;;5015022;28;20270;-80
2021/03/10 09:55:05;;;;;;;39.30;26.23;;;10.60;42.20;;;;;;5011430;28;20232;-79
2021/03/10 09:57:32;;;;;;;42.97;26.30;;;10.60;42.60;;;;;;5018295;28;20401;-79
2021/03/10 09:59:59;;;;;;;40.25;25.45;;;10.70;41.70;;;;;;5022431;28;20333;-78
2021/03/10 10:02:27;;;;;;;42.25;26.75;;;10.50;42.10;;;;;;5035643;28;20215;-77
2021/03/10 10:04:58;;;;;;;40.05;25.42;;;10.70;42.00;;;;;;5036283;28;20216;-79
2021/03/10 10:07:25;;;;;;;37.95;24.80;;;10.80;41.90;;;;;;5033541;28;20235;-76
2021/03/10 10:09:52;;;;;;;37.15;22.98;;;11.30;40.70;;;;;;5019944;28;20212;-78
2021/03/10 10:12:19;;;;;;;36.95;25.00;;;11.30;40.70;;;;;;5015648;28;20227;-78
2021/03/10 10:14:47;;;;;;;36.10;23.85;;;11.10;40.50;;;;;;5015506;28;20208;-79
2021/03/10 10:17:13;;;;;;;40.50;25.52;;;10.90;40.30;;;;;;5016700;28;20255;-79
2021/03/10 10:19:40;;;;;;;36.97;23.70;;;10.80;40.20;;;;;;5016262;28;20707;-78
2021/03/10 10:22:08;;;;;;;35.42;24.42;;;10.80;40.80;;;;;;5014635;28;20715;-78
2021/03/10 10:24:34;;;;;;;38.63;24.80;;;10.90;40.30;;;;;;5014996;28;20561;-78
2021/03/10 10:27:01;;;;;;;39.58;24.75;;;11.00;40.40;;;;;;5016960;28;20268;-77
2021/03/10 10:29:27;;;;;;;38.10;24.67;;;10.90;40.30;;;;;;5017668;28;20219;-78
2021/03/10 10:31:54;;;;;;;40.65;26.55;;;10.80;40.20;;;;;;5015407;28;20234;-77
2021/03/10 10:34:21;;;;;;;40.80;24.63;;;11.00;40.40;;;;;;5010833;28;20209;-82
2021/03/10 10:36:47;;;;;;;43.72;25.73;;;11.10;40.50;;;;;;4996824;28;20295;-79
2021/03/10 10:39:13;;;;;;;40.22;26.00;;;11.20;40.60;;;;;;4996661;28;20716;-78
2021/03/10 10:41:40;;;;;;;37.97;24.73;;;11.20;40.60;;;;;;4995278;28;20239;-78
2021/03/10 10:44:06;;;;;;;41.30;25.05;;;11.30;40.70;;;;;;4995058;28;20201;-78
2021/03/10 10:46:33;;;;;;;38.03;23.85;;;11.30;40.70;;;;;;4996279;28;20204;-79
2021/03/10 10:49:00;;;;;;;33.03;21.95;;;11.30;39.70;;;;;;4997533;28;20263;-79
2021/03/10 10:51:29;;;;;;;33.60;22.92;;;11.30;38.60;;;;;;4996606;28;20273;-77
2021/03/10 10:53:56;;;;;;;34.20;22.15;;;11.50;38.20;;;;;;4995007;28;20681;-78
2021/03/10 10:56:22;;;;;;;32.22;22.70;;;11.80;37.80;;;;;;4996258;28;20244;-78
2021/03/10 10:58:49;;;;;;;33.60;22.98;;;11.90;37.40;;;;;;4996739;28;20224;-78
2021/03/10 11:01:17;;;;;;;36.50;24.05;;;12.00;37.20;;;;;;4997434;28;20279;-78
2021/03/10 11:03:43;;;;;;;36.83;23.40;;;12.20;37.20;;;;;;5000717;28;20731;-78
2021/03/10 11:06:11;;;;;;;32.83;21.67;;;12.10;36.30;;;;;;5001602;28;20213;-78
2021/03/10 11:08:37;;;;;;;32.78;21.33;;;12.20;36.30;;;;;;5006620;28;20208;-77
2021/03/10 11:11:04;;;;;;;33.25;22.42;;;12.10;36.10;;;;;;5009203;28;20243;-78
2021/03/10 11:13:30;;;;;;;27.23;19.88;;;12.30;34.80;;;;;;5008937;28;20236;-78
2021/03/10 11:15:56;;;;;;;30.33;20.90;;;12.40;34.80;;;;;;5007829;28;20223;-78
2021/03/10 11:18:23;;;;;;;30.92;20.08;;;12.40;34.40;;;;;;5006435;28;20208;-78
2021/03/10 11:20:49;;;;;;;26.90;17.95;;;12.60;33.80;;;;;;5007975;28;20208;-78
2021/03/10 11:23:17;;;;;;;24.48;17.52;;;12.70;32.00;;;;;;5001882;28;20228;-78
2021/03/10 11:25:43;;;;;;;28.80;19.27;;;12.80;32.10;;;;;;5003064;28;20205;-77
2021/03/10 11:28:10;;;;;;;29.80;19.25;;;12.90;32.10;;;;;;4998904;28;20303;-77
2021/03/10 11:30:36;;;;;;;27.60;18.85;;;12.70;32.00;;;;;;5000778;28;20208;-78
2021/03/10 11:33:02;;;;;;;29.85;19.65;;;12.70;32.00;;;;;;4997748;28;20235;-76
2021/03/10 11:35:29;;;;;;;26.13;17.98;;;12.80;32.10;;;;;;5001522;28;20215;-77
2021/03/10 11:37:55;;;;;;;24.90;16.58;;;12.80;32.10;;;;;;5003284;28;20209;-77
2021/03/10 11:40:22;;;;;;;24.35;17.05;;;12.90;30.80;;;;;;5000182;28;20224;-77
2021/03/10 11:42:49;;;;;;;19.17;14.50;;;12.90;30.00;;;;;;4998301;28;20583;-77
2021/03/10 11:45:16;;;;;;;23.77;16.67;;;12.70;29.20;;;;;;5004669;28;20239;-77
2021/03/10 11:47:42;;;;;;;21.48;15.40;;;12.80;30.20;;;;;;5011302;28;20291;-79
2021/03/10 11:50:10;;;;;;;21.83;14.80;;;12.80;29.30;;;;;;5018109;28;20255;-77
2021/03/10 11:52:36;;;;;;;21.08;14.05;;;12.70;29.20;;;;;;5014083;28;20586;-77
2021/03/10 11:55:03;;;;;;;20.48;14.15;;;12.50;28.70;;;;;;5015296;28;20214;-78
2021/03/10 11:57:30;;;;;;;18.92;13.45;;;12.50;28.80;;;;;;5019365;28;20214;-77
2021/03/10 11:59:57;;;;;;;15.98;11.43;;;12.30;28.70;;;;;;5018366;28;20661;-76
2021/03/10 12:02:23;;;;;;;17.40;13.30;;;12.40;27.40;;;;;;5016932;28;20263;-76
2021/03/10 12:04:49;;;;;;;19.08;13.68;;;12.60;28.30;;;;;;5014331;28;20300;-76
2021/03/10 12:07:17;;;;;;;16.80;10.90;;;12.70;28.20;;;;;;5013374;28;20212;-77
2021/03/10 12:09:43;;;;;;;16.23;11.25;;;12.80;26.70;;;;;;5018341;28;20303;-78
2021/03/10 12:12:10;;;;;;;23.05;13.50;;;12.60;26.70;;;;;;5016056;28;20232;-78
2021/03/10 12:14:38;;;;;;;18.58;12.15;;;12.70;26.90;;;;;;5015299;28;20207;-77
2021/03/10 12:17:05;;;;;;;20.58;12.70;;;12.60;27.60;;;;;;5014839;28;20325;-77
2021/03/10 12:19:32;;;;;;;19.45;13.23;;;12.70;28.20;;;;;;5017039;28;20228;-77
2021/03/10 12:21:58;;;;;;;17.92;11.48;;;12.60;27.70;;;;;;5031828;28;20211;-77
2021/03/10 12:24:25;;;;;;;20.63;13.43;;;12.70;26.50;;;;;;5035171;28;20192;-78
2021/03/10 12:26:52;;;;;;;15.95;12.02;;;12.70;27.80;;;;;;5035507;28;20188;-77
2021/03/10 12:29:18;;;;;;;16.65;12.35;;;12.70;26.40;;;;;;5035251;28;20335;-77
2021/03/10 12:31:46;;;;;;;12.57;9.65;;;12.70;26.50;;;;;;5024772;28;20204;-78
2021/03/10 12:34:12;;;;;;;13.75;10.07;;;12.50;25.20;;;;;;5014968;28;20211;-80
2021/03/10 12:36:38;;;;;;;15.05;10.55;;;12.50;25.10;;;;;;5015792;28;20208;-79
2021/03/10 12:39:06;;;;;;;14.35;10.68;;;12.50;25.90;;;;;;5032356;28;20207;-78